createdAt,value
2022-12-09T00:00:11.991Z,100768.41
2022-12-09T00:02:40.803Z,100767.38
2022-12-09T00:05:10.298Z,100767.97
2022-12-09T00:07:38.826Z,100770.34
2022-12-09T00:10:09.173Z,100770.13
2022-12-09T00:12:37.451Z,100775.78
2022-12-09T00:15:08.860Z,100770.50
2022-12-09T00:17:37.269Z,100778.25
2022-12-09T00:20:07.712Z,100784.34
2022-12-09T00:22:36.431Z,100772.28
2022-12-09T00:25:04.896Z,100772.41
2022-12-09T00:27:33.383Z,100776.88
2022-12-09T00:30:01.622Z,100775.28
2022-12-09T00:32:31.468Z,100773.69
2022-12-09T00:34:59.793Z,100776.34
2022-12-09T00:37:28.170Z,100773.78
2022-12-09T00:39:56.409Z,100773.63
2022-12-09T00:42:24.675Z,100776.19
2022-12-09T00:44:52.886Z,100777.91
2022-12-09T00:47:21.433Z,100780.56
2022-12-09T00:49:51.274Z,100780.69
2022-12-09T00:52:19.665Z,100780.03
2022-12-09T00:54:48.195Z,100787.22
2022-12-09T00:57:16.492Z,100787.41
2022-12-09T00:59:45.043Z,100779.13
2022-12-09T01:02:13.675Z,100769.75
2022-12-09T01:04:42.008Z,100768.13
2022-12-09T01:07:12.973Z,100770.78
2022-12-09T01:09:41.278Z,100764.69
2022-12-09T01:12:12.163Z,100763.84
2022-12-09T01:14:40.784Z,100757.84
2022-12-09T01:17:09.358Z,100763.06
2022-12-09T01:19:37.814Z,100758.66
2022-12-09T01:22:06.022Z,100760.31
2022-12-09T01:24:35.642Z,100762.84
2022-12-09T01:27:03.978Z,100768.78
2022-12-09T01:29:32.257Z,100770.47
2022-12-09T01:32:00.974Z,100776.53
2022-12-09T01:34:29.477Z,100775.69
2022-12-09T01:36:57.913Z,100771.47
2022-12-09T01:39:26.303Z,100776.72
2022-12-09T01:41:56.089Z,100774.16
2022-12-09T01:44:27.289Z,100781.91
2022-12-09T01:46:57.620Z,100786.31
2022-12-09T01:49:30.338Z,100776.88
2022-12-09T01:52:06.715Z,100783.88
2022-12-09T01:54:35.394Z,100785.72
2022-12-09T01:57:06.540Z,100784.97
2022-12-09T01:59:35.916Z,100781.69
2022-12-09T02:02:06.911Z,100781.78
2022-12-09T02:04:41.302Z,100776.63
2022-12-09T02:07:11.837Z,100779.25
2022-12-09T02:09:40.998Z,100771.44
2022-12-09T02:12:15.404Z,100772.31
2022-12-09T02:14:51.133Z,100771.34
2022-12-09T02:17:31.166Z,100766.91
2022-12-09T02:20:10.545Z,100766.91
2022-12-09T02:22:44.642Z,100767.00
2022-12-09T02:25:25.319Z,100775.59
2022-12-09T02:28:36.202Z,100772.16
2022-12-09T02:31:21.517Z,100766.91
2022-12-09T02:34:19.010Z,100771.97
2022-12-09T02:37:00.421Z,100758.97
2022-12-09T02:39:35.556Z,100765.72
2022-12-09T02:42:06.116Z,100758.81
2022-12-09T02:44:36.683Z,100763.06
2022-12-09T02:47:07.995Z,100764.69
2022-12-09T02:49:40.293Z,100751.63
2022-12-09T02:52:09.749Z,100752.28
2022-12-09T02:54:40.241Z,100753.00
2022-12-09T02:57:24.651Z,100757.91
2022-12-09T02:59:53.080Z,100756.09
2022-12-09T03:02:28.432Z,100756.88
2022-12-09T03:05:11.311Z,100755.75
2022-12-09T03:07:46.282Z,100753.00
2022-12-09T03:10:22.009Z,100760.69
2022-12-09T03:12:56.441Z,100760.69
2022-12-09T03:15:29.211Z,100755.16
2022-12-09T03:17:59.896Z,100754.00
2022-12-09T03:20:31.774Z,100749.41
2022-12-09T03:23:03.531Z,100757.59
2022-12-09T03:25:35.711Z,100751.13
2022-12-09T03:28:07.443Z,100762.00
2022-12-09T03:30:42.007Z,100753.06
2022-12-09T03:33:11.500Z,100757.06
2022-12-09T03:35:45.209Z,100750.75
2022-12-09T03:38:18.809Z,100748.84
2022-12-09T03:40:52.040Z,100748.78
2022-12-09T03:43:25.504Z,100742.75
2022-12-09T03:45:54.688Z,100733.09
2022-12-09T03:48:25.105Z,100734.44
2022-12-09T03:51:01.170Z,100729.84
2022-12-09T03:53:37.922Z,100741.50
2022-12-09T03:56:16.826Z,100732.63
2022-12-09T03:58:49.167Z,100729.75
2022-12-09T04:01:18.441Z,100731.25
2022-12-09T04:03:50.825Z,100729.28
2022-12-09T04:06:20.808Z,100736.88
2022-12-09T04:08:50.172Z,100729.94
2022-12-09T04:11:18.489Z,100727.16
2022-12-09T04:13:46.870Z,100732.94
2022-12-09T04:16:15.583Z,100735.16
2022-12-09T04:18:44.247Z,100724.75
2022-12-09T04:21:15.331Z,100725.53
2022-12-09T04:23:45.107Z,100718.50
2022-12-09T04:26:16.335Z,100719.19
2022-12-09T04:28:45.181Z,100719.78
2022-12-09T04:31:14.679Z,100726.31
2022-12-09T04:33:44.061Z,100717.53
2022-12-09T04:36:16.584Z,100721.72
2022-12-09T04:38:47.148Z,100723.34
2022-12-09T04:41:16.954Z,100721.47
2022-12-09T04:43:45.685Z,100711.09
2022-12-09T04:46:16.977Z,100701.47
2022-12-09T04:48:46.501Z,100707.56
2022-12-09T04:51:17.192Z,100710.22
2022-12-09T04:53:47.098Z,100710.94
2022-12-09T04:56:19.094Z,100716.97
2022-12-09T04:58:48.585Z,100717.94
2022-12-09T05:01:24.781Z,100724.69
2022-12-09T05:03:56.992Z,100716.81
2022-12-09T05:06:25.851Z,100727.84
2022-12-09T05:08:56.535Z,100729.53
2022-12-09T05:11:25.900Z,100716.41
2022-12-09T05:13:55.329Z,100715.31
2022-12-09T05:16:24.090Z,100715.19
2022-12-09T05:18:53.269Z,100714.88
2022-12-09T05:21:23.128Z,100711.34
2022-12-09T05:23:52.275Z,100708.56
2022-12-09T05:26:24.457Z,100714.44
2022-12-09T05:28:54.882Z,100711.72
2022-12-09T05:31:24.745Z,100717.53
2022-12-09T05:33:54.131Z,100713.84
2022-12-09T05:36:25.479Z,100710.19
2022-12-09T05:38:54.681Z,100710.03
2022-12-09T05:41:25.253Z,100708.44
2022-12-09T05:43:54.689Z,100705.91
2022-12-09T05:46:23.468Z,100699.25
2022-12-09T05:48:52.461Z,100703.56
2022-12-09T05:51:25.441Z,100702.69
2022-12-09T05:53:55.747Z,100691.41
2022-12-09T05:56:26.703Z,100699.91
2022-12-09T05:58:56.519Z,100708.44
2022-12-09T06:01:26.544Z,100702.25
2022-12-09T06:03:56.724Z,100707.25
2022-12-09T06:06:28.051Z,100709.59
2022-12-09T06:08:58.773Z,100711.03
2022-12-09T06:11:29.335Z,100705.84
2022-12-09T06:13:58.474Z,100704.28
2022-12-09T06:16:27.329Z,100712.09
2022-12-09T06:18:56.244Z,100706.94
2022-12-09T06:21:25.555Z,100702.41
2022-12-09T06:23:54.911Z,100703.28
2022-12-09T06:26:26.412Z,100707.56
2022-12-09T06:28:57.590Z,100704.91
2022-12-09T06:31:26.898Z,100710.78
2022-12-09T06:33:57.990Z,100705.47
2022-12-09T06:36:31.406Z,100713.34
2022-12-09T06:39:09.545Z,100711.50
2022-12-09T06:41:40.786Z,100708.84
2022-12-09T06:44:14.306Z,100708.72
2022-12-09T06:46:45.662Z,100706.28
2022-12-09T06:49:14.409Z,100703.06
2022-12-09T06:51:42.826Z,100697.28
2022-12-09T06:54:11.169Z,100703.41
2022-12-09T06:56:39.739Z,100695.63
2022-12-09T06:59:11.323Z,100688.75
2022-12-09T07:01:40.911Z,100694.63
2022-12-09T07:04:09.436Z,100695.34
2022-12-09T07:06:40.247Z,100697.94
2022-12-09T07:09:11.425Z,100706.59
2022-12-09T07:11:40.534Z,100704.16
2022-12-09T07:14:11.636Z,100701.59
2022-12-09T07:16:40.750Z,100704.03
2022-12-09T07:19:09.734Z,100700.63
2022-12-09T07:21:38.363Z,100698.72
2022-12-09T07:24:07.718Z,100706.41
2022-12-09T07:26:37.079Z,100706.50
2022-12-09T07:29:06.625Z,100710.78
2022-12-09T07:31:37.498Z,100706.50
2022-12-09T07:34:06.833Z,100711.72
2022-12-09T07:36:38.058Z,100715.16
2022-12-09T07:39:09.617Z,100709.88
2022-12-09T07:41:38.124Z,100701.28
2022-12-09T07:44:06.857Z,100705.63
2022-12-09T07:46:36.647Z,100702.25
2022-12-09T07:49:07.305Z,100700.63
2022-12-09T07:51:36.304Z,100695.41
2022-12-09T07:54:05.466Z,100704.16
2022-12-09T07:56:34.383Z,100711.94
2022-12-09T07:59:02.804Z,100709.44
2022-12-09T08:01:31.721Z,100709.00
2022-12-09T08:04:02.523Z,100720.09
2022-12-09T08:06:32.213Z,100727.81
2022-12-09T08:09:02.049Z,100709.81
2022-12-09T08:11:33.152Z,100713.41
2022-12-09T08:14:11.064Z,100713.72
2022-12-09T08:16:41.867Z,100712.22
2022-12-09T08:19:13.307Z,100708.88
2022-12-09T08:21:42.425Z,100712.31
2022-12-09T08:24:13.775Z,100720.13
2022-12-09T08:26:43.293Z,100713.41
2022-12-09T08:29:14.372Z,100715.41
2022-12-09T08:31:47.295Z,100716.50
2022-12-09T08:34:23.149Z,100720.16
2022-12-09T08:36:52.954Z,100723.03
2022-12-09T08:39:24.049Z,100724.09
2022-12-09T08:41:52.398Z,100726.84
2022-12-09T08:44:22.835Z,100732.13
2022-12-09T08:46:52.989Z,100723.66
2022-12-09T08:49:25.148Z,100721.31
2022-12-09T08:51:54.741Z,100727.59
2022-12-09T08:54:24.015Z,100720.22
2022-12-09T08:56:56.254Z,100724.91
2022-12-09T08:59:25.413Z,100720.13
2022-12-09T09:01:54.510Z,100716.94
2022-12-09T09:04:24.580Z,100717.13
2022-12-09T09:06:54.181Z,100715.69
2022-12-09T09:09:23.786Z,100720.13
2022-12-09T09:11:52.761Z,100717.69
2022-12-09T09:14:21.088Z,100719.59
2022-12-09T09:16:49.994Z,100720.78
2022-12-09T09:19:22.601Z,100721.06
2022-12-09T09:21:53.264Z,100721.38
2022-12-09T09:24:25.159Z,100721.97
2022-12-09T09:26:54.779Z,100724.72
2022-12-09T09:29:24.972Z,100724.09
2022-12-09T09:31:55.230Z,100723.88
2022-12-09T09:34:26.147Z,100726.63
2022-12-09T09:36:56.870Z,100726.75
2022-12-09T09:39:25.904Z,100724.25
2022-12-09T09:41:57.400Z,100731.22
2022-12-09T09:44:32.601Z,100723.47
2022-12-09T09:47:05.424Z,100731.34
2022-12-09T09:49:37.712Z,100730.59
2022-12-09T09:52:12.702Z,100733.38
2022-12-09T09:54:41.644Z,100733.81
2022-12-09T09:57:17.276Z,100739.31
2022-12-09T10:00:08.451Z,100730.06
2022-12-09T10:03:01.129Z,100736.53
2022-12-09T10:05:34.224Z,100732.66
2022-12-09T10:08:28.021Z,100739.88
2022-12-09T10:11:09.230Z,100735.94
2022-12-09T10:13:49.444Z,100734.59
2022-12-09T10:16:23.138Z,100734.78
2022-12-09T10:19:08.188Z,100729.75
2022-12-09T10:21:43.415Z,100739.38
2022-12-09T10:24:25.037Z,100729.78
2022-12-09T10:27:03.635Z,100739.22
2022-12-09T10:29:56.769Z,100742.75
2022-12-09T10:32:29.056Z,100746.50
2022-12-09T10:34:59.273Z,100736.31
2022-12-09T10:37:33.029Z,100741.44
2022-12-09T10:40:22.125Z,100736.88
2022-12-09T10:43:11.728Z,100740.25
2022-12-09T10:48:39.737Z,100735.78
2022-12-09T10:51:14.125Z,100730.69
2022-12-09T10:53:48.725Z,100728.59
2022-12-09T10:56:26.701Z,100715.91
2022-12-09T10:59:11.961Z,100722.72
2022-12-09T11:01:52.209Z,100717.69
2022-12-09T11:04:26.343Z,100723.78
2022-12-09T11:07:00.223Z,100720.19
2022-12-09T11:09:32.259Z,100728.03
2022-12-09T11:12:05.724Z,100727.41
2022-12-09T11:14:38.257Z,100721.59
2022-12-09T11:17:17.052Z,100725.34
2022-12-09T11:19:51.332Z,100716.75
2022-12-09T11:22:39.142Z,100720.97
2022-12-09T11:25:23.801Z,100722.84
2022-12-09T11:27:57.764Z,100722.13
2022-12-09T11:30:29.288Z,100722.13
2022-12-09T11:33:09.925Z,100715.38
2022-12-09T11:35:53.653Z,100721.44
2022-12-09T11:38:40.237Z,100715.47
2022-12-09T11:41:41.539Z,100714.59
2022-12-09T11:44:26.763Z,100724.94
2022-12-09T11:47:02.450Z,100720.78
2022-12-09T11:49:33.998Z,100723.44
2022-12-09T11:52:24.475Z,100724.38
2022-12-09T11:55:10.679Z,100709.69
2022-12-09T11:57:47.945Z,100723.59
2022-12-09T12:00:23.700Z,100727.91
2022-12-09T12:03:04.019Z,100726.91
2022-12-09T12:05:38.303Z,100734.72
2022-12-09T12:08:17.745Z,100728.00
2022-12-09T12:10:51.244Z,100727.19
2022-12-09T12:13:24.699Z,100734.81
2022-12-09T12:16:07.025Z,100730.47
2022-12-09T12:18:42.815Z,100724.38
2022-12-09T12:21:51.042Z,100725.94
2022-12-09T12:24:42.262Z,100720.78
2022-12-09T12:27:29.524Z,100715.59
2022-12-09T12:30:04.999Z,100719.94
2022-12-09T12:33:11.736Z,100737.06
2022-12-09T12:35:56.136Z,100728.53
2022-12-09T12:38:51.548Z,100721.66
2022-12-09T12:41:37.585Z,100719.00
2022-12-09T12:44:41.757Z,100712.94
2022-12-09T12:47:25.960Z,100705.13
2022-12-09T12:50:23.704Z,100701.94
2022-12-09T12:53:03.397Z,100705.63
2022-12-09T12:56:01.034Z,100702.31
2022-12-09T12:58:47.571Z,100706.97
2022-12-09T13:01:32.129Z,100704.53
2022-12-09T13:04:14.143Z,100710.31
2022-12-09T13:06:52.163Z,100708.38
2022-12-09T13:09:26.986Z,100710.09
2022-12-09T13:12:08.514Z,100694.63
2022-12-09T13:14:52.837Z,100700.59
2022-12-09T13:17:26.499Z,100691.97
2022-12-09T13:20:00.036Z,100691.97
2022-12-09T13:22:41.290Z,100689.34
2022-12-09T13:25:25.568Z,100689.25
2022-12-09T13:28:00.744Z,100697.00
2022-12-09T13:30:39.001Z,100697.06
2022-12-09T13:33:32.030Z,100703.91
2022-12-09T13:36:06.794Z,100704.81
2022-12-09T13:38:40.720Z,100701.41
2022-12-09T13:42:05.186Z,100698.72
2022-12-09T13:44:37.713Z,100690.97
2022-12-09T13:47:27.836Z,100683.19
2022-12-09T13:50:02.452Z,100683.19
2022-12-09T13:52:56.611Z,100697.84
2022-12-09T13:55:41.165Z,100704.75
2022-12-09T13:59:01.885Z,100699.53
2022-12-09T14:01:37.386Z,100702.19
2022-12-09T14:04:14.441Z,100700.59
2022-12-09T14:07:10.364Z,100696.38
2022-12-09T14:09:49.082Z,100702.41
2022-12-09T14:13:03.532Z,100692.84
2022-12-09T14:15:39.986Z,100684.28
2022-12-09T14:18:32.997Z,100683.38
2022-12-09T14:21:30.605Z,100691.13
2022-12-09T14:24:36.697Z,100685.97
2022-12-09T14:27:19.658Z,100680.03
2022-12-09T14:29:53.558Z,100680.91
2022-12-09T14:32:27.677Z,100680.06
2022-12-09T14:35:23.495Z,100667.09
2022-12-09T14:38:16.863Z,100672.28
2022-12-09T14:40:58.120Z,100671.34
2022-12-09T14:43:57.593Z,100682.47
2022-12-09T14:46:30.142Z,100687.53
2022-12-09T14:49:03.497Z,100684.75
2022-12-09T14:51:36.675Z,100684.56
2022-12-09T14:54:09.426Z,100685.22
2022-12-09T14:56:37.846Z,100681.56
2022-12-09T14:59:19.329Z,100679.69
2022-12-09T15:01:54.438Z,100687.16
2022-12-09T15:04:31.851Z,100685.91
2022-12-09T15:07:16.317Z,100689.81
2022-12-09T15:09:57.077Z,100690.28
2022-12-09T15:12:31.215Z,100695.06
2022-12-09T15:15:07.171Z,100698.13
2022-12-09T15:17:43.497Z,100690.03
2022-12-09T15:20:28.997Z,100690.41
2022-12-09T15:23:00.677Z,100683.91
2022-12-09T15:25:29.678Z,100683.50
2022-12-09T15:28:00.499Z,100678.81
2022-12-09T15:30:35.186Z,100692.41
2022-12-09T15:33:04.790Z,100688.63
2022-12-09T15:35:34.562Z,100689.25
2022-12-09T15:38:07.499Z,100691.53
2022-12-09T15:40:38.158Z,100689.56
2022-12-09T15:43:12.651Z,100697.03
2022-12-09T15:45:45.322Z,100690.94
2022-12-09T15:48:18.043Z,100692.56
2022-12-09T15:50:51.470Z,100686.28
2022-12-09T15:53:25.298Z,100692.03
2022-12-09T15:55:57.885Z,100691.69
2022-12-09T15:58:30.543Z,100691.47
2022-12-09T16:01:00.374Z,100709.38
2022-12-09T16:03:32.724Z,100711.81
2022-12-09T16:06:05.256Z,100719.44
2022-12-09T16:08:36.349Z,100715.03
2022-12-09T16:11:05.637Z,100715.78
2022-12-09T16:13:34.186Z,100713.91
2022-12-09T16:16:28.284Z,100711.13
2022-12-09T16:18:56.933Z,100705.03
2022-12-09T16:21:29.281Z,100713.56
2022-12-09T16:24:07.160Z,100713.44
2022-12-09T16:26:38.756Z,100709.94
2022-12-09T16:29:16.511Z,100703.72
2022-12-09T16:31:46.166Z,100709.66
2022-12-09T16:34:21.986Z,100705.25
2022-12-09T16:36:55.919Z,100706.88
2022-12-09T16:39:35.558Z,100704.13
2022-12-09T16:42:04.221Z,100699.72
2022-12-09T16:44:36.905Z,100713.34
2022-12-09T16:47:13.796Z,100701.28
2022-12-09T16:49:44.274Z,100708.00
2022-12-09T16:52:15.369Z,100710.38
2022-12-09T16:54:45.688Z,100708.59
2022-12-09T16:57:15.694Z,100710.97
2022-12-09T16:59:45.207Z,100715.13
2022-12-09T17:02:26.399Z,100711.44
2022-12-09T17:04:54.870Z,100721.63
2022-12-09T17:07:23.093Z,100721.69
2022-12-09T17:09:51.293Z,100725.97
2022-12-09T17:12:19.569Z,100720.66
2022-12-09T17:14:47.883Z,100728.38
2022-12-09T17:17:16.156Z,100714.66
2022-12-09T17:19:46.679Z,100712.88
2022-12-09T17:22:14.907Z,100721.34
2022-12-09T17:24:43.363Z,100718.63
2022-12-09T17:27:11.588Z,100724.63
2022-12-09T17:29:39.924Z,100721.09
2022-12-09T17:32:08.499Z,100724.53
2022-12-09T17:34:36.766Z,100726.22
2022-12-09T17:37:06.934Z,100726.22
2022-12-09T17:39:35.690Z,100731.63
2022-12-09T17:42:03.999Z,100729.25
2022-12-09T17:44:32.273Z,100740.50
2022-12-09T17:47:00.604Z,100741.66
2022-12-09T17:49:28.874Z,100747.84
2022-12-09T17:51:57.193Z,100747.91
2022-12-09T17:54:26.815Z,100751.28
2022-12-09T17:56:55.043Z,100763.22
2022-12-09T17:59:23.240Z,100750.88
2022-12-09T18:01:51.440Z,100756.84
2022-12-09T18:04:19.712Z,100753.25
2022-12-09T18:06:48.220Z,100760.91
2022-12-09T18:09:19.834Z,100760.75
2022-12-09T18:11:51.703Z,100758.84
2022-12-09T18:14:20.537Z,100765.50
2022-12-09T18:16:50.117Z,100774.00
2022-12-09T18:19:20.761Z,100776.47
2022-12-09T18:21:50.219Z,100773.75
2022-12-09T18:24:18.749Z,100767.56
2022-12-09T18:26:49.694Z,100773.53
2022-12-09T18:29:18.050Z,100767.44
2022-12-09T18:31:50.449Z,100778.59
2022-12-09T18:34:21.185Z,100776.91
2022-12-09T18:36:49.461Z,100770.81
2022-12-09T18:39:18.127Z,100763.03
2022-12-09T18:41:47.989Z,100774.00
2022-12-09T18:44:17.577Z,100775.53
2022-12-09T18:46:49.217Z,100776.13
2022-12-09T18:49:23.572Z,100771.78
2022-12-09T18:51:53.391Z,100781.13
2022-12-09T18:54:24.710Z,100777.59
2022-12-09T18:56:54.923Z,100769.09
2022-12-09T18:59:25.462Z,100786.13
2022-12-09T19:01:54.074Z,100780.84
2022-12-09T19:04:25.660Z,100784.38
2022-12-09T19:06:57.299Z,100770.69
2022-12-09T19:09:28.545Z,100770.69
2022-12-09T19:12:11.285Z,100775.97
2022-12-09T19:14:47.556Z,100779.28
2022-12-09T19:17:15.812Z,100778.53
2022-12-09T19:19:45.328Z,100776.94
2022-12-09T19:22:13.562Z,100781.28
2022-12-09T19:24:43.421Z,100784.72
2022-12-09T19:27:13.946Z,100787.38
2022-12-09T19:29:42.376Z,100780.53
2022-12-09T19:32:36.450Z,100777.22
2022-12-09T19:34:58.975Z,100782.28
2022-12-09T19:37:27.272Z,100791.63
2022-12-09T19:39:55.609Z,100790.75
2022-12-09T19:42:25.238Z,100789.97
2022-12-09T19:45:01.280Z,100785.50
2022-12-09T19:47:29.964Z,100788.91
2022-12-09T19:49:58.231Z,100789.78
2022-12-09T19:52:27.975Z,100794.13
2022-12-09T19:54:57.852Z,100788.25
2022-12-09T19:57:27.524Z,100795.09
2022-12-09T19:59:55.824Z,100788.84
2022-12-09T20:02:24.056Z,100784.13
2022-12-09T20:04:52.555Z,100790.97
2022-12-09T20:07:21.533Z,100791.84
2022-12-09T20:09:50.158Z,100797.72
2022-12-09T20:12:18.446Z,100802.72
2022-12-09T20:14:48.078Z,100815.44
2022-12-09T20:17:17.385Z,100807.75
2022-12-09T20:19:45.636Z,100810.00
2022-12-09T20:22:13.872Z,100815.94
2022-12-09T20:24:43.214Z,100810.75
2022-12-09T20:27:11.529Z,100816.66
2022-12-09T20:29:41.159Z,100812.34
2022-12-09T20:32:11.005Z,100817.63
2022-12-09T20:34:39.613Z,100821.06
2022-12-09T20:37:08.028Z,100820.19
2022-12-09T20:39:36.335Z,100815.16
2022-12-09T20:42:04.792Z,100821.91
2022-12-09T20:44:33.393Z,100815.94
2022-12-09T20:47:01.666Z,100823.66
2022-12-09T20:49:31.415Z,100826.06
2022-12-09T20:52:05.780Z,100836.38
2022-12-09T20:54:34.055Z,100832.03
2022-12-09T20:57:02.306Z,100834.63
2022-12-09T20:59:30.579Z,100835.41
2022-12-09T21:01:58.855Z,100830.25
2022-12-09T21:04:27.140Z,100836.97
2022-12-09T21:06:57.364Z,100836.00
2022-12-09T21:09:27.232Z,100839.31
2022-12-09T21:11:55.524Z,100842.81
2022-12-09T21:14:29.416Z,100849.63
2022-12-09T21:17:00.818Z,100844.44
2022-12-09T21:19:30.413Z,100847.94
2022-12-09T21:22:00.127Z,100840.41
2022-12-09T21:24:28.681Z,100835.41
2022-12-09T21:26:57.288Z,100838.84
2022-12-09T21:29:31.731Z,100843.84
2022-12-09T21:32:01.706Z,100844.59
2022-12-09T21:34:30.142Z,100848.63
2022-12-09T21:36:59.789Z,100845.72
2022-12-09T21:39:29.122Z,100840.28
2022-12-09T21:41:57.501Z,100844.44
2022-12-09T21:44:27.261Z,100848.63
2022-12-09T21:46:55.634Z,100839.09
2022-12-09T21:49:24.059Z,100845.13
2022-12-09T21:51:52.384Z,100849.31
2022-12-09T21:54:22.017Z,100850.09
2022-12-09T21:56:50.494Z,100850.81
2022-12-09T21:59:19.081Z,100847.28
2022-12-09T22:01:47.519Z,100841.28
2022-12-09T22:04:17.376Z,100847.28
2022-12-09T22:06:49.559Z,100844.97
2022-12-09T22:09:21.652Z,100841.59
2022-12-09T22:11:50.143Z,100840.00
2022-12-09T22:14:18.684Z,100844.44
2022-12-09T22:16:47.466Z,100840.28
2022-12-09T22:19:21.037Z,100842.84
2022-12-09T22:21:51.109Z,100836.97
2022-12-09T22:24:21.386Z,100836.97
2022-12-09T22:26:49.710Z,100838.81
2022-12-09T22:29:19.874Z,100843.31
2022-12-09T22:31:48.643Z,100834.81
2022-12-09T22:34:19.910Z,100835.59
2022-12-09T22:36:49.401Z,100830.47
2022-12-09T22:39:22.111Z,100840.75
2022-12-09T22:41:50.934Z,100847.56
2022-12-09T22:44:21.008Z,100847.47
2022-12-09T22:46:49.990Z,100846.59
2022-12-09T22:49:18.699Z,100849.19
2022-12-09T22:51:47.836Z,100856.00
2022-12-09T22:54:16.592Z,100850.78
2022-12-09T22:56:46.364Z,100852.47
2022-12-09T22:59:16.054Z,100845.59
2022-12-09T23:01:48.499Z,100854.91
2022-12-09T23:04:21.657Z,100856.44
2022-12-09T23:06:51.136Z,100847.75
2022-12-09T23:09:22.435Z,100842.56
2022-12-09T23:11:53.386Z,100850.97
2022-12-09T23:14:21.862Z,100842.25
2022-12-09T23:16:50.352Z,100836.88
2022-12-09T23:19:18.586Z,100851.22
2022-12-09T23:21:47.119Z,100841.84
2022-12-09T23:24:24.704Z,100846.91
2022-12-09T23:26:56.742Z,100849.47
2022-12-09T23:29:25.086Z,100851.16
2022-12-09T23:31:53.574Z,100847.88
2022-12-09T23:34:21.811Z,100840.97
2022-12-09T23:36:50.089Z,100848.75
2022-12-09T23:39:20.147Z,100840.41
2022-12-09T23:41:49.389Z,100850.91
2022-12-09T23:44:20.120Z,100856.09
2022-12-09T23:46:48.558Z,100854.50
2022-12-09T23:49:17.707Z,100853.63
2022-12-09T23:51:46.248Z,100862.31
2022-12-09T23:54:16.762Z,100855.41
2022-12-09T23:56:50.267Z,100850.28
2022-12-09T23:59:22.703Z,100851.28
